createdAt,value
2022-09-03T00:00:35.183Z,12.80
2022-09-03T00:03:33.023Z,12.70
2022-09-03T00:06:30.508Z,12.70
2022-09-03T00:09:28.020Z,12.70
2022-09-03T00:12:26.870Z,12.62
2022-09-03T00:15:24.350Z,12.60
2022-09-03T00:18:21.897Z,12.50
2022-09-03T00:21:19.397Z,12.50
2022-09-03T00:24:16.864Z,12.50
2022-09-03T00:27:14.376Z,12.50
2022-09-03T00:30:14.654Z,12.40
2022-09-03T00:33:14.930Z,12.40
2022-09-03T00:36:12.690Z,12.34
2022-09-03T00:39:10.174Z,12.30
2022-09-03T00:42:08.276Z,12.30
2022-09-03T00:45:06.571Z,12.20
2022-09-03T00:48:04.049Z,12.20
2022-09-03T00:51:02.207Z,12.18
2022-09-03T00:53:59.676Z,12.10
2022-09-03T00:56:57.151Z,12.10
2022-09-03T00:59:57.134Z,12.10
2022-09-03T01:02:54.685Z,12.10
2022-09-03T01:05:52.434Z,12.10
2022-09-03T01:08:51.139Z,12.00
2022-09-03T01:11:50.151Z,12.00
2022-09-03T01:14:47.620Z,12.00
2022-09-03T01:17:45.080Z,11.92
2022-09-03T01:20:42.545Z,11.90
2022-09-03T01:23:40.019Z,11.90
2022-09-03T01:26:37.530Z,11.86
2022-09-03T01:29:35.720Z,11.80
2022-09-03T01:32:37.351Z,11.80
2022-09-03T01:35:35.155Z,11.76
2022-09-03T01:38:32.631Z,11.70
2022-09-03T01:41:47.970Z,11.70
2022-09-03T01:44:45.455Z,11.70
2022-09-03T01:47:48.120Z,11.60
2022-09-03T01:50:45.607Z,11.60
2022-09-03T01:53:43.105Z,11.60
2022-09-03T01:56:40.577Z,11.50
2022-09-03T01:59:38.076Z,11.50
2022-09-03T02:02:36.150Z,11.50
2022-09-03T02:05:35.863Z,11.40
2022-09-03T02:08:33.318Z,11.40
2022-09-03T02:11:30.785Z,11.40
2022-09-03T02:14:28.260Z,11.40
2022-09-03T02:17:25.764Z,11.40
2022-09-03T02:20:23.252Z,11.32
2022-09-03T02:23:24.743Z,11.30
2022-09-03T02:26:25.829Z,11.30
2022-09-03T02:29:23.304Z,11.30
2022-09-03T02:32:20.781Z,11.28
2022-09-03T02:35:18.256Z,11.30
2022-09-03T02:38:17.308Z,11.26
2022-09-03T02:41:15.590Z,11.26
2022-09-03T02:44:13.049Z,11.22
2022-09-03T02:47:10.561Z,11.22
2022-09-03T02:50:08.023Z,11.26
2022-09-03T02:53:05.671Z,11.30
2022-09-03T02:56:03.311Z,11.26
2022-09-03T02:59:01.405Z,11.26
2022-09-03T03:02:01.286Z,11.30
2022-09-03T03:04:58.901Z,11.30
2022-09-03T03:07:56.836Z,11.30
2022-09-03T03:10:57.142Z,11.30
2022-09-03T03:13:54.633Z,11.30
2022-09-03T03:16:52.183Z,11.20
2022-09-03T03:19:50.292Z,11.20
2022-09-03T03:22:47.800Z,11.20
2022-09-03T03:25:45.277Z,11.14
2022-09-03T03:28:42.795Z,11.10
2022-09-03T03:31:40.269Z,11.10
2022-09-03T03:34:38.667Z,11.10
2022-09-03T03:37:36.887Z,11.10
2022-09-03T03:40:35.028Z,11.08
2022-09-03T03:43:32.516Z,11.00
2022-09-03T03:46:29.996Z,11.00
2022-09-03T03:49:27.512Z,11.00
2022-09-03T03:52:25.055Z,11.00
2022-09-03T03:55:23.028Z,11.00
2022-09-03T03:58:25.211Z,10.98
2022-09-03T04:01:22.942Z,11.00
2022-09-03T04:04:20.475Z,10.96
2022-09-03T04:07:17.941Z,10.90
2022-09-03T04:10:15.658Z,10.90
2022-09-03T04:13:13.139Z,10.90
2022-09-03T04:16:11.182Z,10.90
2022-09-03T04:19:08.684Z,10.88
2022-09-03T04:22:06.172Z,10.80
2022-09-03T04:25:03.656Z,10.80
2022-09-03T04:28:03.985Z,10.80
2022-09-03T04:31:01.583Z,10.80
2022-09-03T04:33:59.168Z,10.80
2022-09-03T04:36:57.633Z,10.80
2022-09-03T04:39:55.300Z,10.80
2022-09-03T04:42:52.948Z,10.80
2022-09-03T04:45:50.495Z,10.90
2022-09-03T04:48:47.988Z,10.90
2022-09-03T04:51:45.450Z,10.90
2022-09-03T04:54:43.003Z,10.90
2022-09-03T04:57:43.176Z,11.00
2022-09-03T05:00:40.717Z,11.00
2022-09-03T05:03:38.632Z,11.10
2022-09-03T05:06:36.159Z,11.10
2022-09-03T05:09:33.653Z,11.20
2022-09-03T05:12:31.914Z,11.30
2022-09-03T05:15:29.395Z,11.40
2022-09-03T05:18:26.860Z,11.40
2022-09-03T05:21:24.716Z,11.50
2022-09-03T05:24:22.200Z,11.60
2022-09-03T05:27:19.690Z,11.70
2022-09-03T05:30:17.239Z,11.78
2022-09-03T05:33:15.537Z,11.82
2022-09-03T05:36:13.028Z,11.90
2022-09-03T05:39:10.522Z,12.00
2022-09-03T05:42:08.023Z,12.10
2022-09-03T05:45:05.610Z,12.20
2022-09-03T05:48:03.097Z,12.30
2022-09-03T05:51:01.097Z,12.44
2022-09-03T05:53:58.569Z,12.60
2022-09-03T05:56:56.162Z,12.70
2022-09-03T05:59:53.647Z,12.90
2022-09-03T06:02:51.166Z,13.04
2022-09-03T06:05:49.003Z,13.22
2022-09-03T06:08:46.472Z,13.40
2022-09-03T06:11:43.956Z,13.60
2022-09-03T06:14:43.753Z,13.86
2022-09-03T06:17:41.238Z,14.10
2022-09-03T06:20:40.254Z,14.38
2022-09-03T06:23:37.712Z,14.64
2022-09-03T06:26:38.838Z,14.90
2022-09-03T06:29:37.109Z,15.14
2022-09-03T06:32:34.590Z,15.42
2022-09-03T06:35:32.164Z,15.80
2022-09-03T06:38:40.581Z,16.12
2022-09-03T06:41:38.620Z,16.50
2022-09-03T06:44:36.101Z,16.90
2022-09-03T06:47:34.055Z,17.30
2022-09-03T06:50:34.617Z,17.60
2022-09-03T06:53:32.401Z,18.00
2022-09-03T06:56:29.894Z,18.30
2022-09-03T06:59:27.362Z,18.56
2022-09-03T07:02:24.888Z,18.90
2022-09-03T07:05:25.663Z,19.32
2022-09-03T07:08:23.160Z,19.70
2022-09-03T07:11:22.521Z,20.04
2022-09-03T07:14:20.057Z,20.50
2022-09-03T07:17:17.608Z,21.00
2022-09-03T07:20:15.091Z,21.40
2022-09-03T07:23:13.187Z,21.60
2022-09-03T07:26:10.719Z,22.00
2022-09-03T07:29:08.788Z,22.32
2022-09-03T07:32:06.346Z,22.72
2022-09-03T07:35:03.829Z,23.10
2022-09-03T07:38:01.338Z,23.30
2022-09-03T07:40:59.275Z,23.70
2022-09-03T07:43:57.293Z,23.90
2022-09-03T07:46:55.845Z,24.06
2022-09-03T07:49:53.365Z,24.50
2022-09-03T07:52:50.856Z,24.70
2022-09-03T07:55:49.520Z,25.02
2022-09-03T07:58:47.809Z,25.30
2022-09-03T08:01:45.270Z,25.58
2022-09-03T08:04:43.660Z,26.06
2022-09-03T08:07:41.188Z,26.40
2022-09-03T08:10:40.193Z,26.76
2022-09-03T08:13:37.678Z,26.92
2022-09-03T08:16:35.225Z,27.10
2022-09-03T08:19:32.858Z,27.28
2022-09-03T08:22:30.347Z,27.38
2022-09-03T08:25:27.863Z,27.74
2022-09-03T08:28:25.423Z,28.14
2022-09-03T08:31:23.052Z,28.52
2022-09-03T08:34:20.597Z,28.80
2022-09-03T08:37:18.074Z,28.70
2022-09-03T08:40:15.555Z,28.90
2022-09-03T08:43:13.390Z,29.10
2022-09-03T08:46:10.909Z,29.10
2022-09-03T08:49:08.431Z,29.56
2022-09-03T08:52:05.904Z,29.94
2022-09-03T08:55:03.438Z,30.20
2022-09-03T08:58:00.901Z,30.40
2022-09-03T09:01:01.694Z,30.78
2022-09-03T09:03:59.397Z,31.22
2022-09-03T09:06:57.266Z,31.52
2022-09-03T09:09:54.758Z,31.30
2022-09-03T09:12:52.235Z,31.10
2022-09-03T09:15:49.762Z,31.10
2022-09-03T09:18:47.758Z,31.40
2022-09-03T09:21:46.315Z,31.90
2022-09-03T09:24:44.276Z,31.78
2022-09-03T09:27:41.748Z,31.52
2022-09-03T09:30:39.237Z,31.80
2022-09-03T09:33:36.722Z,32.20
2022-09-03T09:36:34.195Z,32.32
2022-09-03T09:39:32.118Z,32.42
2022-09-03T09:42:31.213Z,32.72
2022-09-03T09:45:28.753Z,32.90
2022-09-03T09:48:27.204Z,33.12
2022-09-03T09:51:24.658Z,33.12
2022-09-03T09:54:22.279Z,32.98
2022-09-03T09:57:19.779Z,33.10
2022-09-03T10:00:17.319Z,33.26
2022-09-03T10:03:14.880Z,33.50
2022-09-03T10:06:30.026Z,33.50
2022-09-03T10:09:31.383Z,33.50
2022-09-03T10:12:29.366Z,33.70
2022-09-03T10:15:26.851Z,33.70
2022-09-03T10:18:28.728Z,33.62
2022-09-03T10:21:26.552Z,33.80
2022-09-03T10:24:24.178Z,33.90
2022-09-03T10:27:23.036Z,34.14
2022-09-03T10:30:20.527Z,34.40
2022-09-03T10:33:18.079Z,34.66
2022-09-03T10:36:15.642Z,34.90
2022-09-03T10:39:13.142Z,34.30
2022-09-03T10:42:11.282Z,33.56
2022-09-03T10:45:09.778Z,33.40
2022-09-03T10:48:07.255Z,33.26
2022-09-03T10:51:04.869Z,33.16
2022-09-03T10:54:02.357Z,33.00
2022-09-03T10:56:59.889Z,33.40
2022-09-03T10:59:57.360Z,33.80
2022-09-03T11:02:54.985Z,34.20
2022-09-03T11:05:53.091Z,34.64
2022-09-03T11:08:51.157Z,34.80
2022-09-03T11:11:48.652Z,34.50
2022-09-03T11:14:46.887Z,34.20
2022-09-03T11:17:44.392Z,34.50
2022-09-03T11:20:42.437Z,34.60
2022-09-03T11:23:40.707Z,34.90
2022-09-03T11:26:39.905Z,35.10
2022-09-03T11:29:38.299Z,35.30
2022-09-03T11:32:35.802Z,35.30
2022-09-03T11:35:33.725Z,35.40
2022-09-03T11:38:32.222Z,35.10
2022-09-03T11:41:29.698Z,35.10
2022-09-03T11:44:27.765Z,35.10
2022-09-03T11:47:25.248Z,34.62
2022-09-03T11:50:22.766Z,34.30
2022-09-03T11:53:20.382Z,34.48
2022-09-03T11:56:17.900Z,34.50
2022-09-03T11:59:16.766Z,34.50
2022-09-03T12:02:14.287Z,34.50
2022-09-03T12:05:12.397Z,34.60
2022-09-03T12:08:09.873Z,34.58
2022-09-03T12:11:09.884Z,34.58
2022-09-03T12:14:11.653Z,34.36
2022-09-03T12:17:11.105Z,34.18
2022-09-03T12:20:08.600Z,33.90
2022-09-03T12:23:06.711Z,33.70
2022-09-03T12:26:04.181Z,33.70
2022-09-03T12:29:02.851Z,33.90
2022-09-03T12:32:01.832Z,33.84
2022-09-03T12:34:59.311Z,33.86
2022-09-03T12:38:06.527Z,33.70
2022-09-03T12:41:26.826Z,33.92
2022-09-03T12:44:23.743Z,33.80
2022-09-03T12:47:38.028Z,33.40
2022-09-03T12:50:35.793Z,33.18
2022-09-03T12:53:33.277Z,33.24
2022-09-03T12:56:32.391Z,33.20
2022-09-03T12:59:30.376Z,33.10
2022-09-03T13:02:27.966Z,33.00
2022-09-03T13:05:25.488Z,33.00
2022-09-03T13:08:22.955Z,32.90
2022-09-03T13:11:20.448Z,33.00
2022-09-03T13:14:19.125Z,33.10
2022-09-03T13:17:16.706Z,32.86
2022-09-03T13:20:14.184Z,32.50
2022-09-03T13:23:12.094Z,32.30
2022-09-03T13:26:10.706Z,32.20
2022-09-03T13:29:08.179Z,32.10
2022-09-03T13:32:06.328Z,32.20
2022-09-03T13:35:03.934Z,32.20
2022-09-03T13:38:02.133Z,32.30
2022-09-03T13:40:59.826Z,32.46
2022-09-03T13:43:57.287Z,32.24
2022-09-03T13:46:54.787Z,32.10
2022-09-03T13:50:10.176Z,31.80
2022-09-03T13:53:07.767Z,31.70
2022-09-03T13:56:06.660Z,31.46
2022-09-03T13:59:05.238Z,31.28
2022-09-03T14:02:02.751Z,31.00
2022-09-03T14:05:00.286Z,30.98
2022-09-03T14:07:58.086Z,30.80
2022-09-03T14:10:55.905Z,30.70
2022-09-03T14:13:54.794Z,30.88
2022-09-03T14:16:55.375Z,30.92
2022-09-03T14:19:53.042Z,30.90
2022-09-03T14:22:50.517Z,30.80
2022-09-03T14:25:48.112Z,30.60
2022-09-03T14:28:45.610Z,30.58
2022-09-03T14:31:43.126Z,30.24
2022-09-03T14:34:40.646Z,30.40
2022-09-03T14:37:38.172Z,30.44
2022-09-03T14:40:35.671Z,30.20
2022-09-03T14:43:33.143Z,29.84
2022-09-03T14:46:30.679Z,30.00
2022-09-03T14:49:28.542Z,30.10
2022-09-03T14:52:26.001Z,30.00
2022-09-03T14:55:23.489Z,29.80
2022-09-03T14:58:21.022Z,29.60
2022-09-03T15:01:18.532Z,29.40
2022-09-03T15:04:16.059Z,29.30
2022-09-03T15:07:13.539Z,29.20
2022-09-03T15:10:11.036Z,29.10
2022-09-03T15:13:08.539Z,29.00
2022-09-03T15:16:06.518Z,28.80
2022-09-03T15:19:05.053Z,28.70
2022-09-03T15:22:03.781Z,28.70
2022-09-03T15:25:01.260Z,28.62
2022-09-03T15:27:58.751Z,28.50
2022-09-03T15:30:56.499Z,28.38
2022-09-03T15:33:54.003Z,28.20
2022-09-03T15:36:53.878Z,28.10
2022-09-03T15:39:51.558Z,28.00
2022-09-03T15:42:49.060Z,27.86
2022-09-03T15:45:46.628Z,27.72
2022-09-03T15:48:44.863Z,27.50
2022-09-03T15:51:43.329Z,27.30
2022-09-03T15:54:43.660Z,27.12
2022-09-03T15:57:41.137Z,27.06
2022-09-03T16:00:40.655Z,26.86
2022-09-03T16:03:40.174Z,26.76
2022-09-03T16:06:38.516Z,26.60
2022-09-03T16:09:35.998Z,26.50
2022-09-03T16:12:33.479Z,26.30
2022-09-03T16:15:32.025Z,26.10
2022-09-03T16:18:30.597Z,25.90
2022-09-03T16:21:28.099Z,25.80
2022-09-03T16:24:26.058Z,25.70
2022-09-03T16:27:23.542Z,25.50
2022-09-03T16:30:21.042Z,25.40
2022-09-03T16:33:19.385Z,25.30
2022-09-03T16:36:16.883Z,25.20
2022-09-03T16:39:14.466Z,25.10
2022-09-03T16:42:11.990Z,25.00
2022-09-03T16:45:12.038Z,24.90
2022-09-03T16:48:10.109Z,24.86
2022-09-03T16:51:07.886Z,24.80
2022-09-03T16:54:05.811Z,24.70
2022-09-03T16:57:03.360Z,24.70
2022-09-03T17:00:00.857Z,24.60
2022-09-03T17:02:58.626Z,24.60
2022-09-03T17:05:56.105Z,24.50
2022-09-03T17:08:53.585Z,24.40
2022-09-03T17:11:51.060Z,24.30
2022-09-03T17:14:48.589Z,24.30
2022-09-03T17:17:46.537Z,24.20
2022-09-03T17:20:49.076Z,24.10
2022-09-03T17:23:47.053Z,24.00
2022-09-03T17:26:44.659Z,23.90
2022-09-03T17:29:43.543Z,23.88
2022-09-03T17:32:41.032Z,23.80
2022-09-03T17:35:38.533Z,23.76
2022-09-03T17:38:36.001Z,23.62
2022-09-03T17:41:34.344Z,23.60
2022-09-03T17:44:32.018Z,23.50
2022-09-03T17:47:29.505Z,23.50
2022-09-03T17:50:27.605Z,23.40
2022-09-03T17:53:27.121Z,23.30
2022-09-03T17:56:24.697Z,23.20
2022-09-03T17:59:22.160Z,23.20
2022-09-03T18:02:19.664Z,23.10
2022-09-03T18:05:20.686Z,23.00
2022-09-03T18:08:18.161Z,23.00
2022-09-03T18:11:15.952Z,22.90
2022-09-03T18:14:13.870Z,22.84
2022-09-03T18:17:13.502Z,22.80
2022-09-03T18:20:28.795Z,22.70
2022-09-03T18:23:44.431Z,22.62
2022-09-03T18:26:59.463Z,22.58
2022-09-03T18:30:14.277Z,22.50
2022-09-03T18:33:29.075Z,22.40
2022-09-03T18:36:44.282Z,22.40
2022-09-03T18:39:59.691Z,22.36
2022-09-03T18:43:15.555Z,22.30
2022-09-03T18:50:06.371Z,22.20
2022-09-03T18:53:25.418Z,22.20
2022-09-03T18:56:43.371Z,22.10
2022-09-03T18:59:58.881Z,22.10
2022-09-03T19:03:15.636Z,22.00
2022-09-03T19:06:34.608Z,22.00
2022-09-03T19:09:50.413Z,21.90
2022-09-03T19:13:05.945Z,21.90
2022-09-03T19:16:22.679Z,21.80
2022-09-03T19:19:38.570Z,21.76
2022-09-03T19:22:54.071Z,21.70
2022-09-03T19:26:09.388Z,21.60
2022-09-03T19:29:25.003Z,21.50
2022-09-03T19:32:40.558Z,21.40
2022-09-03T19:35:56.327Z,21.30
2022-09-03T19:39:12.016Z,21.30
2022-09-03T19:42:28.563Z,21.20
2022-09-03T19:45:43.974Z,21.10
2022-09-03T19:48:59.539Z,21.10
2022-09-03T19:52:14.970Z,21.00
2022-09-03T19:55:31.532Z,20.90
2022-09-03T19:58:47.462Z,20.90
2022-09-03T20:02:03.190Z,20.80
2022-09-03T20:05:19.090Z,20.70
2022-09-03T20:08:34.668Z,20.70
2022-09-03T20:11:32.461Z,20.60
2022-09-03T20:14:30.141Z,20.50
2022-09-03T20:17:27.709Z,20.40
2022-09-03T20:20:25.474Z,20.40
2022-09-03T20:23:23.313Z,20.30
2022-09-03T20:26:20.827Z,20.20
2022-09-03T20:29:18.451Z,20.02
2022-09-03T20:32:15.989Z,19.92
2022-09-03T20:35:13.523Z,19.90
2022-09-03T20:38:11.101Z,19.80
2022-09-03T20:41:08.579Z,19.70
2022-09-03T20:44:06.063Z,19.60
2022-09-03T20:47:04.625Z,19.50
2022-09-03T20:50:04.366Z,19.48
2022-09-03T20:53:03.153Z,19.40
2022-09-03T20:56:02.998Z,19.30
2022-09-03T20:59:01.366Z,19.20
2022-09-03T21:01:59.017Z,19.14
2022-09-03T21:04:56.655Z,19.10
2022-09-03T21:07:54.139Z,19.00
2022-09-03T21:10:51.635Z,18.90
2022-09-03T21:13:49.109Z,18.80
2022-09-03T21:16:46.594Z,18.80
2022-09-03T21:19:44.099Z,18.70
2022-09-03T21:22:41.569Z,18.70
2022-09-03T21:25:39.042Z,18.62
2022-09-03T21:28:38.695Z,18.60
2022-09-03T21:31:38.580Z,18.60
2022-09-03T21:34:36.411Z,18.50
2022-09-03T21:37:33.902Z,18.50
2022-09-03T21:40:32.525Z,18.40
2022-09-03T21:43:30.400Z,18.40
2022-09-03T21:46:27.906Z,18.40
2022-09-03T21:49:25.419Z,18.40
2022-09-03T21:52:22.896Z,18.40
2022-09-03T21:55:20.725Z,18.40
2022-09-03T21:58:18.249Z,18.40
2022-09-03T22:01:15.806Z,18.40
2022-09-03T22:04:13.303Z,18.40
2022-09-03T22:07:10.770Z,18.50
2022-09-03T22:10:08.387Z,18.50
2022-09-03T22:13:09.362Z,18.50
2022-09-03T22:16:07.375Z,18.50
2022-09-03T22:19:09.149Z,18.56
2022-09-03T22:22:06.640Z,18.60
2022-09-03T22:25:05.162Z,18.60
2022-09-03T22:28:03.503Z,18.60
2022-09-03T22:31:01.011Z,18.60
2022-09-03T22:33:58.515Z,18.60
2022-09-03T22:36:55.995Z,18.66
2022-09-03T22:39:53.533Z,18.60
2022-09-03T22:42:51.041Z,18.60
2022-09-03T22:45:48.576Z,18.60
2022-09-03T22:48:46.073Z,18.60
2022-09-03T22:51:43.553Z,18.60
2022-09-03T22:54:41.046Z,18.60
2022-09-03T22:57:38.528Z,18.52
2022-09-03T23:00:35.989Z,18.50
2022-09-03T23:03:37.111Z,18.50
2022-09-03T23:06:34.686Z,18.42
2022-09-03T23:09:32.184Z,18.40
2022-09-03T23:12:29.659Z,18.40
2022-09-03T23:15:30.687Z,18.30
2022-09-03T23:18:28.179Z,18.30
2022-09-03T23:21:25.670Z,18.20
2022-09-03T23:24:23.139Z,18.20
2022-09-03T23:27:20.604Z,18.10
2022-09-03T23:30:18.096Z,18.10
2022-09-03T23:33:15.587Z,18.10
2022-09-03T23:36:13.908Z,18.10
2022-09-03T23:39:11.376Z,18.00
2022-09-03T23:42:09.122Z,18.08
2022-09-03T23:45:07.153Z,18.10
2022-09-03T23:48:07.700Z,18.10
2022-09-03T23:51:05.206Z,18.16
2022-09-03T23:54:02.698Z,18.20
2022-09-03T23:57:00.729Z,18.20
2022-09-03T23:59:58.217Z,18.20
